sensor_id;sensor_type;location;lat;lon;timestamp;P1;durP1;ratioP1;P2;durP2;ratioP2
2211;SDS011;48849;48.758;9.158;2022-10-16T00:01:38;5.30;;;1.90;;
2211;SDS011;48849;48.758;9.158;2022-10-16T00:04:05;7.50;;;2.08;;
2211;SDS011;48849;48.758;9.158;2022-10-16T00:06:32;7.33;;;4.13;;
2211;SDS011;48849;48.758;9.158;2022-10-16T00:08:58;5.30;;;2.22;;
2211;SDS011;48849;48.758;9.158;2022-10-16T00:11:26;6.40;;;2.35;;
2211;SDS011;48849;48.758;9.158;2022-10-16T00:13:55;6.07;;;2.58;;
2211;SDS011;48849;48.758;9.158;2022-10-16T00:16:25;4.97;;;2.90;;
2211;SDS011;48849;48.758;9.158;2022-10-16T00:18:52;3.75;;;3.30;;
2211;SDS011;48849;48.758;9.158;2022-10-16T00:21:19;3.85;;;2.70;;
2211;SDS011;48849;48.758;9.158;2022-10-16T00:23:49;3.33;;;2.30;;
2211;SDS011;48849;48.758;9.158;2022-10-16T00:26:17;5.40;;;2.30;;
2211;SDS011;48849;48.758;9.158;2022-10-16T00:28:45;5.00;;;2.50;;
2211;SDS011;48849;48.758;9.158;2022-10-16T00:31:12;3.55;;;2.15;;
2211;SDS011;48849;48.758;9.158;2022-10-16T00:33:40;3.55;;;2.33;;
2211;SDS011;48849;48.758;9.158;2022-10-16T00:36:08;3.30;;;1.77;;
2211;SDS011;48849;48.758;9.158;2022-10-16T00:38:37;3.10;;;1.97;;
2211;SDS011;48849;48.758;9.158;2022-10-16T00:41:04;3.17;;;2.20;;
2211;SDS011;48849;48.758;9.158;2022-10-16T00:43:39;2.70;;;2.25;;
2211;SDS011;48849;48.758;9.158;2022-10-16T00:46:10;6.82;;;2.53;;
2211;SDS011;48849;48.758;9.158;2022-10-16T00:48:45;3.88;;;2.22;;
2211;SDS011;48849;48.758;9.158;2022-10-16T00:51:17;4.20;;;2.40;;
2211;SDS011;48849;48.758;9.158;2022-10-16T00:53:46;4.00;;;1.80;;
2211;SDS011;48849;48.758;9.158;2022-10-16T00:56:14;5.18;;;2.30;;
2211;SDS011;48849;48.758;9.158;2022-10-16T00:58:42;3.23;;;2.17;;
2211;SDS011;48849;48.758;9.158;2022-10-16T01:01:08;6.90;;;2.20;;
2211;SDS011;48849;48.758;9.158;2022-10-16T01:03:36;2.58;;;2.38;;
2211;SDS011;48849;48.758;9.158;2022-10-16T01:06:07;4.15;;;2.20;;
2211;SDS011;48849;48.758;9.158;2022-10-16T01:08:49;6.82;;;2.13;;
2211;SDS011;48849;48.758;9.158;2022-10-16T01:11:27;4.18;;;2.20;;
2211;SDS011;48849;48.758;9.158;2022-10-16T01:14:00;5.95;;;2.63;;
2211;SDS011;48849;48.758;9.158;2022-10-16T01:16:33;2.28;;;2.08;;
2211;SDS011;48849;48.758;9.158;2022-10-16T01:19:08;2.27;;;2.07;;
2211;SDS011;48849;48.758;9.158;2022-10-16T01:21:41;2.95;;;2.05;;
2211;SDS011;48849;48.758;9.158;2022-10-16T01:24:12;6.35;;;2.50;;
2211;SDS011;48849;48.758;9.158;2022-10-16T01:29:29;5.47;;;2.13;;
2211;SDS011;48849;48.758;9.158;2022-10-16T01:32:01;7.22;;;1.90;;
2211;SDS011;48849;48.758;9.158;2022-10-16T01:34:37;2.83;;;2.10;;
2211;SDS011;48849;48.758;9.158;2022-10-16T01:37:09;2.90;;;1.98;;
2211;SDS011;48849;48.758;9.158;2022-10-16T01:39:39;3.65;;;1.90;;
2211;SDS011;48849;48.758;9.158;2022-10-16T01:42:14;3.40;;;1.90;;
2211;SDS011;48849;48.758;9.158;2022-10-16T01:44:45;3.05;;;1.85;;
2211;SDS011;48849;48.758;9.158;2022-10-16T01:47:14;3.35;;;1.73;;
2211;SDS011;48849;48.758;9.158;2022-10-16T01:49:43;4.30;;;1.90;;
2211;SDS011;48849;48.758;9.158;2022-10-16T01:52:12;4.15;;;2.00;;
2211;SDS011;48849;48.758;9.158;2022-10-16T01:54:42;4.05;;;2.10;;
2211;SDS011;48849;48.758;9.158;2022-10-16T01:57:13;5.35;;;2.10;;
2211;SDS011;48849;48.758;9.158;2022-10-16T01:59:42;6.85;;;2.25;;
2211;SDS011;48849;48.758;9.158;2022-10-16T02:02:12;3.67;;;1.85;;
2211;SDS011;48849;48.758;9.158;2022-10-16T02:04:42;2.65;;;1.55;;
2211;SDS011;48849;48.758;9.158;2022-10-16T02:07:11;4.30;;;1.75;;
2211;SDS011;48849;48.758;9.158;2022-10-16T02:09:38;2.03;;;1.70;;
2211;SDS011;48849;48.758;9.158;2022-10-16T02:12:06;4.50;;;1.95;;
2211;SDS011;48849;48.758;9.158;2022-10-16T02:14:38;5.55;;;2.30;;
2211;SDS011;48849;48.758;9.158;2022-10-16T02:17:10;4.93;;;1.73;;
2211;SDS011;48849;48.758;9.158;2022-10-16T02:19:37;4.75;;;2.00;;
2211;SDS011;48849;48.758;9.158;2022-10-16T02:22:06;4.18;;;1.98;;
2211;SDS011;48849;48.758;9.158;2022-10-16T02:24:42;6.90;;;2.47;;
2211;SDS011;48849;48.758;9.158;2022-10-16T02:27:16;3.70;;;1.90;;
2211;SDS011;48849;48.758;9.158;2022-10-16T02:29:49;5.40;;;2.25;;
2211;SDS011;48849;48.758;9.158;2022-10-16T02:32:23;2.00;;;1.85;;
2211;SDS011;48849;48.758;9.158;2022-10-16T02:34:53;3.38;;;2.22;;
2211;SDS011;48849;48.758;9.158;2022-10-16T02:37:20;3.25;;;2.17;;
2211;SDS011;48849;48.758;9.158;2022-10-16T02:39:47;2.60;;;2.15;;
2211;SDS011;48849;48.758;9.158;2022-10-16T02:42:15;5.63;;;2.20;;
2211;SDS011;48849;48.758;9.158;2022-10-16T02:44:43;3.83;;;1.92;;
2211;SDS011;48849;48.758;9.158;2022-10-16T02:47:12;3.03;;;2.35;;
2211;SDS011;48849;48.758;9.158;2022-10-16T02:49:38;2.25;;;1.92;;
2211;SDS011;48849;48.758;9.158;2022-10-16T02:52:05;3.03;;;2.03;;
2211;SDS011;48849;48.758;9.158;2022-10-16T02:54:32;4.63;;;1.90;;
2211;SDS011;48849;48.758;9.158;2022-10-16T02:56:58;9.85;;;1.98;;
2211;SDS011;48849;48.758;9.158;2022-10-16T02:59:25;3.65;;;2.20;;
2211;SDS011;48849;48.758;9.158;2022-10-16T03:01:52;3.10;;;2.10;;
2211;SDS011;48849;48.758;9.158;2022-10-16T03:04:20;3.20;;;1.77;;
2211;SDS011;48849;48.758;9.158;2022-10-16T03:06:47;2.20;;;2.05;;
2211;SDS011;48849;48.758;9.158;2022-10-16T03:09:13;1.90;;;1.80;;
2211;SDS011;48849;48.758;9.158;2022-10-16T03:11:40;3.72;;;1.85;;
2211;SDS011;48849;48.758;9.158;2022-10-16T03:14:07;2.10;;;1.70;;
2211;SDS011;48849;48.758;9.158;2022-10-16T03:16:34;5.13;;;2.05;;
2211;SDS011;48849;48.758;9.158;2022-10-16T03:19:00;3.25;;;2.00;;
2211;SDS011;48849;48.758;9.158;2022-10-16T03:21:28;9.20;;;2.43;;
2211;SDS011;48849;48.758;9.158;2022-10-16T03:23:55;2.20;;;1.83;;
2211;SDS011;48849;48.758;9.158;2022-10-16T03:26:22;3.20;;;2.00;;
2211;SDS011;48849;48.758;9.158;2022-10-16T03:28:49;2.60;;;1.85;;
2211;SDS011;48849;48.758;9.158;2022-10-16T03:31:15;2.95;;;1.90;;
2211;SDS011;48849;48.758;9.158;2022-10-16T03:33:42;3.28;;;2.92;;
2211;SDS011;48849;48.758;9.158;2022-10-16T03:36:09;3.88;;;1.85;;
2211;SDS011;48849;48.758;9.158;2022-10-16T03:38:37;3.45;;;2.08;;
2211;SDS011;48849;48.758;9.158;2022-10-16T03:41:03;5.57;;;2.72;;
2211;SDS011;48849;48.758;9.158;2022-10-16T03:43:32;2.30;;;2.10;;
2211;SDS011;48849;48.758;9.158;2022-10-16T03:45:59;4.60;;;3.33;;
2211;SDS011;48849;48.758;9.158;2022-10-16T03:48:26;6.90;;;2.95;;
2211;SDS011;48849;48.758;9.158;2022-10-16T03:50:53;4.05;;;2.95;;
2211;SDS011;48849;48.758;9.158;2022-10-16T03:53:20;4.78;;;2.50;;
2211;SDS011;48849;48.758;9.158;2022-10-16T03:55:48;10.10;;;2.85;;
2211;SDS011;48849;48.758;9.158;2022-10-16T03:58:14;2.50;;;2.10;;
2211;SDS011;48849;48.758;9.158;2022-10-16T04:00:41;4.10;;;2.40;;
2211;SDS011;48849;48.758;9.158;2022-10-16T04:03:08;12.25;;;2.83;;
2211;SDS011;48849;48.758;9.158;2022-10-16T04:05:36;3.08;;;1.80;;
2211;SDS011;48849;48.758;9.158;2022-10-16T04:08:03;3.97;;;2.20;;
2211;SDS011;48849;48.758;9.158;2022-10-16T04:10:30;2.80;;;1.75;;
2211;SDS011;48849;48.758;9.158;2022-10-16T04:12:58;6.53;;;1.90;;
2211;SDS011;48849;48.758;9.158;2022-10-16T04:15:25;2.10;;;1.90;;
2211;SDS011;48849;48.758;9.158;2022-10-16T04:17:52;3.50;;;2.00;;
2211;SDS011;48849;48.758;9.158;2022-10-16T04:20:19;5.05;;;2.00;;
2211;SDS011;48849;48.758;9.158;2022-10-16T04:22:46;5.57;;;2.13;;
2211;SDS011;48849;48.758;9.158;2022-10-16T04:25:13;2.70;;;2.08;;
2211;SDS011;48849;48.758;9.158;2022-10-16T04:27:40;4.88;;;1.90;;
2211;SDS011;48849;48.758;9.158;2022-10-16T04:30:08;3.25;;;1.85;;
2211;SDS011;48849;48.758;9.158;2022-10-16T04:32:36;2.45;;;2.10;;
2211;SDS011;48849;48.758;9.158;2022-10-16T04:35:02;4.75;;;1.73;;
2211;SDS011;48849;48.758;9.158;2022-10-16T04:37:29;15.30;;;2.50;;
2211;SDS011;48849;48.758;9.158;2022-10-16T04:39:56;6.55;;;2.45;;
2211;SDS011;48849;48.758;9.158;2022-10-16T04:42:23;3.47;;;1.88;;
2211;SDS011;48849;48.758;9.158;2022-10-16T04:44:50;6.68;;;2.22;;
2211;SDS011;48849;48.758;9.158;2022-10-16T04:47:18;3.97;;;2.00;;
2211;SDS011;48849;48.758;9.158;2022-10-16T04:49:44;4.55;;;1.90;;
2211;SDS011;48849;48.758;9.158;2022-10-16T04:52:11;3.33;;;1.70;;
2211;SDS011;48849;48.758;9.158;2022-10-16T04:54:38;4.00;;;1.70;;
2211;SDS011;48849;48.758;9.158;2022-10-16T04:57:05;4.05;;;1.67;;
2211;SDS011;48849;48.758;9.158;2022-10-16T04:59:31;2.65;;;1.50;;
2211;SDS011;48849;48.758;9.158;2022-10-16T05:01:58;1.95;;;1.75;;
2211;SDS011;48849;48.758;9.158;2022-10-16T05:04:26;3.65;;;1.80;;
2211;SDS011;48849;48.758;9.158;2022-10-16T05:06:53;5.13;;;1.90;;
2211;SDS011;48849;48.758;9.158;2022-10-16T05:09:20;2.17;;;1.70;;
2211;SDS011;48849;48.758;9.158;2022-10-16T05:11:46;5.13;;;1.90;;
2211;SDS011;48849;48.758;9.158;2022-10-16T05:14:13;5.18;;;2.00;;
2211;SDS011;48849;48.758;9.158;2022-10-16T05:16:40;5.30;;;1.80;;
2211;SDS011;48849;48.758;9.158;2022-10-16T05:19:06;2.65;;;1.80;;
2211;SDS011;48849;48.758;9.158;2022-10-16T05:21:35;2.85;;;1.63;;
2211;SDS011;48849;48.758;9.158;2022-10-16T05:24:01;1.92;;;1.70;;
2211;SDS011;48849;48.758;9.158;2022-10-16T05:26:28;5.30;;;2.65;;
2211;SDS011;48849;48.758;9.158;2022-10-16T05:28:55;1.83;;;1.45;;
2211;SDS011;48849;48.758;9.158;2022-10-16T05:31:22;5.10;;;1.40;;
2211;SDS011;48849;48.758;9.158;2022-10-16T05:33:48;5.25;;;2.33;;
2211;SDS011;48849;48.758;9.158;2022-10-16T05:36:15;6.50;;;1.77;;
2211;SDS011;48849;48.758;9.158;2022-10-16T05:38:44;5.88;;;1.88;;
2211;SDS011;48849;48.758;9.158;2022-10-16T05:41:11;3.15;;;1.83;;
2211;SDS011;48849;48.758;9.158;2022-10-16T05:43:38;4.85;;;1.75;;
2211;SDS011;48849;48.758;9.158;2022-10-16T05:46:04;3.08;;;2.03;;
2211;SDS011;48849;48.758;9.158;2022-10-16T05:48:32;4.93;;;1.95;;
2211;SDS011;48849;48.758;9.158;2022-10-16T05:50:59;4.07;;;1.77;;
2211;SDS011;48849;48.758;9.158;2022-10-16T05:53:27;2.42;;;1.50;;
2211;SDS011;48849;48.758;9.158;2022-10-16T05:55:56;6.88;;;2.22;;
2211;SDS011;48849;48.758;9.158;2022-10-16T05:58:23;3.83;;;1.63;;
2211;SDS011;48849;48.758;9.158;2022-10-16T06:00:54;6.72;;;2.10;;
2211;SDS011;48849;48.758;9.158;2022-10-16T06:03:22;7.00;;;2.08;;
2211;SDS011;48849;48.758;9.158;2022-10-16T06:05:49;4.40;;;2.00;;
2211;SDS011;48849;48.758;9.158;2022-10-16T06:08:15;7.00;;;2.60;;
2211;SDS011;48849;48.758;9.158;2022-10-16T06:10:43;7.10;;;2.90;;
2211;SDS011;48849;48.758;9.158;2022-10-16T06:13:12;6.22;;;2.92;;
2211;SDS011;48849;48.758;9.158;2022-10-16T06:15:39;10.07;;;3.75;;
2211;SDS011;48849;48.758;9.158;2022-10-16T06:18:07;5.50;;;3.42;;
2211;SDS011;48849;48.758;9.158;2022-10-16T06:20:34;9.55;;;3.97;;
2211;SDS011;48849;48.758;9.158;2022-10-16T06:23:01;9.73;;;4.05;;
2211;SDS011;48849;48.758;9.158;2022-10-16T06:25:29;9.40;;;3.33;;
2211;SDS011;48849;48.758;9.158;2022-10-16T06:27:55;7.30;;;3.00;;
2211;SDS011;48849;48.758;9.158;2022-10-16T06:30:24;9.75;;;4.70;;
2211;SDS011;48849;48.758;9.158;2022-10-16T06:32:50;11.13;;;3.80;;
2211;SDS011;48849;48.758;9.158;2022-10-16T06:35:17;13.10;;;3.47;;
2211;SDS011;48849;48.758;9.158;2022-10-16T06:37:44;6.00;;;3.33;;
2211;SDS011;48849;48.758;9.158;2022-10-16T06:40:11;6.85;;;2.60;;
2211;SDS011;48849;48.758;9.158;2022-10-16T06:42:39;5.50;;;2.90;;
2211;SDS011;48849;48.758;9.158;2022-10-16T06:45:06;8.50;;;3.37;;
2211;SDS011;48849;48.758;9.158;2022-10-16T06:47:35;2.95;;;2.33;;
2211;SDS011;48849;48.758;9.158;2022-10-16T06:50:02;6.50;;;2.13;;
2211;SDS011;48849;48.758;9.158;2022-10-16T06:52:31;4.25;;;2.30;;
2211;SDS011;48849;48.758;9.158;2022-10-16T06:54:58;9.13;;;2.00;;
2211;SDS011;48849;48.758;9.158;2022-10-16T06:57:25;3.47;;;2.25;;
2211;SDS011;48849;48.758;9.158;2022-10-16T06:59:52;6.07;;;3.07;;
2211;SDS011;48849;48.758;9.158;2022-10-16T07:02:19;3.05;;;2.30;;
2211;SDS011;48849;48.758;9.158;2022-10-16T07:04:47;9.00;;;2.78;;
2211;SDS011;48849;48.758;9.158;2022-10-16T07:07:13;4.15;;;2.42;;
2211;SDS011;48849;48.758;9.158;2022-10-16T07:09:40;3.47;;;2.20;;
2211;SDS011;48849;48.758;9.158;2022-10-16T07:12:07;4.88;;;2.88;;
2211;SDS011;48849;48.758;9.158;2022-10-16T07:14:33;4.22;;;2.10;;
2211;SDS011;48849;48.758;9.158;2022-10-16T07:17:00;4.55;;;2.47;;
2211;SDS011;48849;48.758;9.158;2022-10-16T07:19:27;2.45;;;2.10;;
2211;SDS011;48849;48.758;9.158;2022-10-16T07:21:55;4.35;;;2.10;;
2211;SDS011;48849;48.758;9.158;2022-10-16T07:24:22;4.37;;;2.60;;
2211;SDS011;48849;48.758;9.158;2022-10-16T07:26:49;4.72;;;2.28;;
2211;SDS011;48849;48.758;9.158;2022-10-16T07:29:17;3.47;;;2.17;;
2211;SDS011;48849;48.758;9.158;2022-10-16T07:31:45;3.63;;;1.83;;
2211;SDS011;48849;48.758;9.158;2022-10-16T07:34:13;4.60;;;2.08;;
2211;SDS011;48849;48.758;9.158;2022-10-16T07:36:41;3.03;;;1.90;;
2211;SDS011;48849;48.758;9.158;2022-10-16T07:39:09;3.30;;;2.27;;
2211;SDS011;48849;48.758;9.158;2022-10-16T07:41:36;4.10;;;2.50;;
2211;SDS011;48849;48.758;9.158;2022-10-16T07:44:03;4.32;;;2.20;;
2211;SDS011;48849;48.758;9.158;2022-10-16T07:46:31;1.85;;;1.65;;
2211;SDS011;48849;48.758;9.158;2022-10-16T07:48:59;2.57;;;2.37;;
2211;SDS011;48849;48.758;9.158;2022-10-16T07:51:25;4.23;;;2.10;;
2211;SDS011;48849;48.758;9.158;2022-10-16T07:53:53;2.13;;;1.93;;
2211;SDS011;48849;48.758;9.158;2022-10-16T07:56:21;3.30;;;2.20;;
2211;SDS011;48849;48.758;9.158;2022-10-16T07:58:48;3.13;;;2.50;;
2211;SDS011;48849;48.758;9.158;2022-10-16T08:01:16;6.72;;;3.00;;
2211;SDS011;48849;48.758;9.158;2022-10-16T08:03:43;4.72;;;3.03;;
2211;SDS011;48849;48.758;9.158;2022-10-16T08:06:11;7.88;;;3.90;;
2211;SDS011;48849;48.758;9.158;2022-10-16T08:08:38;4.60;;;3.93;;
2211;SDS011;48849;48.758;9.158;2022-10-16T08:11:05;5.38;;;3.80;;
2211;SDS011;48849;48.758;9.158;2022-10-16T08:13:36;4.47;;;4.00;;
2211;SDS011;48849;48.758;9.158;2022-10-16T08:16:03;5.75;;;3.80;;
2211;SDS011;48849;48.758;9.158;2022-10-16T08:18:36;4.55;;;3.72;;
2211;SDS011;48849;48.758;9.158;2022-10-16T08:21:11;6.82;;;4.18;;
2211;SDS011;48849;48.758;9.158;2022-10-16T08:23:41;3.30;;;2.73;;
2211;SDS011;48849;48.758;9.158;2022-10-16T08:26:10;3.65;;;2.40;;
2211;SDS011;48849;48.758;9.158;2022-10-16T08:28:40;3.35;;;3.05;;
2211;SDS011;48849;48.758;9.158;2022-10-16T08:31:11;5.60;;;3.23;;
2211;SDS011;48849;48.758;9.158;2022-10-16T08:33:44;3.27;;;2.97;;
2211;SDS011;48849;48.758;9.158;2022-10-16T08:36:21;5.05;;;3.35;;
2211;SDS011;48849;48.758;9.158;2022-10-16T08:38:53;4.47;;;3.75;;
2211;SDS011;48849;48.758;9.158;2022-10-16T08:41:28;9.90;;;4.87;;
2211;SDS011;48849;48.758;9.158;2022-10-16T08:44:35;9.23;;;5.63;;
2211;SDS011;48849;48.758;9.158;2022-10-16T08:47:17;9.98;;;4.40;;
2211;SDS011;48849;48.758;9.158;2022-10-16T08:49:55;7.67;;;6.83;;
2211;SDS011;48849;48.758;9.158;2022-10-16T08:52:31;6.80;;;4.90;;
2211;SDS011;48849;48.758;9.158;2022-10-16T08:55:08;4.18;;;3.67;;
2211;SDS011;48849;48.758;9.158;2022-10-16T08:58:01;7.60;;;6.70;;
2211;SDS011;48849;48.758;9.158;2022-10-16T09:00:43;7.80;;;7.00;;
2211;SDS011;48849;48.758;9.158;2022-10-16T09:03:20;11.93;;;7.17;;
2211;SDS011;48849;48.758;9.158;2022-10-16T09:06:09;8.30;;;7.40;;
2211;SDS011;48849;48.758;9.158;2022-10-16T09:08:51;5.03;;;4.33;;
2211;SDS011;48849;48.758;9.158;2022-10-16T09:11:34;5.53;;;3.30;;
2211;SDS011;48849;48.758;9.158;2022-10-16T09:14:31;3.93;;;2.10;;
2211;SDS011;48849;48.758;9.158;2022-10-16T09:20:14;2.17;;;1.87;;
2211;SDS011;48849;48.758;9.158;2022-10-16T09:23:00;2.53;;;2.33;;
2211;SDS011;48849;48.758;9.158;2022-10-16T09:25:43;5.87;;;4.57;;
2211;SDS011;48849;48.758;9.158;2022-10-16T09:28:14;4.70;;;3.10;;
2211;SDS011;48849;48.758;9.158;2022-10-16T09:30:47;3.33;;;3.03;;
2211;SDS011;48849;48.758;9.158;2022-10-16T09:33:28;16.93;;;15.13;;
2211;SDS011;48849;48.758;9.158;2022-10-16T09:36:04;14.40;;;11.77;;
2211;SDS011;48849;48.758;9.158;2022-10-16T09:38:36;11.20;;;9.03;;
2211;SDS011;48849;48.758;9.158;2022-10-16T09:41:11;16.00;;;14.23;;
2211;SDS011;48849;48.758;9.158;2022-10-16T09:43:46;22.97;;;17.33;;
2211;SDS011;48849;48.758;9.158;2022-10-16T09:46:24;21.50;;;17.63;;
2211;SDS011;48849;48.758;9.158;2022-10-16T09:48:58;11.30;;;10.20;;
2211;SDS011;48849;48.758;9.158;2022-10-16T09:51:27;10.00;;;8.90;;
2211;SDS011;48849;48.758;9.158;2022-10-16T09:53:57;10.40;;;8.97;;
2211;SDS011;48849;48.758;9.158;2022-10-16T09:56:26;12.13;;;8.07;;
2211;SDS011;48849;48.758;9.158;2022-10-16T09:58:54;6.63;;;5.83;;
2211;SDS011;48849;48.758;9.158;2022-10-16T10:01:24;6.73;;;5.60;;
2211;SDS011;48849;48.758;9.158;2022-10-16T10:03:57;11.53;;;4.90;;
2211;SDS011;48849;48.758;9.158;2022-10-16T10:06:28;14.50;;;5.90;;
2211;SDS011;48849;48.758;9.158;2022-10-16T10:08:58;5.60;;;4.37;;
2211;SDS011;48849;48.758;9.158;2022-10-16T10:11:45;6.87;;;3.97;;
2211;SDS011;48849;48.758;9.158;2022-10-16T10:14:21;2.63;;;2.43;;
2211;SDS011;48849;48.758;9.158;2022-10-16T10:17:09;4.33;;;3.53;;
2211;SDS011;48849;48.758;9.158;2022-10-16T10:19:44;4.67;;;3.60;;
2211;SDS011;48849;48.758;9.158;2022-10-16T10:25:22;4.60;;;3.80;;
2211;SDS011;48849;48.758;9.158;2022-10-16T10:31:17;9.50;;;8.27;;
2211;SDS011;48849;48.758;9.158;2022-10-16T10:33:52;10.50;;;9.40;;
2211;SDS011;48849;48.758;9.158;2022-10-16T10:36:28;10.30;;;8.70;;
2211;SDS011;48849;48.758;9.158;2022-10-16T10:39:03;15.00;;;11.50;;
2211;SDS011;48849;48.758;9.158;2022-10-16T10:44:51;13.40;;;11.03;;
2211;SDS011;48849;48.758;9.158;2022-10-16T10:47:45;12.90;;;11.50;;
2211;SDS011;48849;48.758;9.158;2022-10-16T10:50:22;12.70;;;11.40;;
2211;SDS011;48849;48.758;9.158;2022-10-16T10:52:59;10.83;;;9.43;;
2211;SDS011;48849;48.758;9.158;2022-10-16T10:55:36;16.37;;;10.10;;
2211;SDS011;48849;48.758;9.158;2022-10-16T10:58:22;10.50;;;9.00;;
2211;SDS011;48849;48.758;9.158;2022-10-16T11:01:04;10.30;;;8.60;;
2211;SDS011;48849;48.758;9.158;2022-10-16T11:06:29;8.73;;;5.60;;
2211;SDS011;48849;48.758;9.158;2022-10-16T11:09:03;9.07;;;5.67;;
2211;SDS011;48849;48.758;9.158;2022-10-16T11:11:37;7.43;;;5.90;;
2211;SDS011;48849;48.758;9.158;2022-10-16T11:14:13;6.70;;;5.50;;
2211;SDS011;48849;48.758;9.158;2022-10-16T11:16:45;8.37;;;4.63;;
2211;SDS011;48849;48.758;9.158;2022-10-16T11:19:21;6.80;;;5.17;;
2211;SDS011;48849;48.758;9.158;2022-10-16T11:22:01;7.83;;;4.90;;
2211;SDS011;48849;48.758;9.158;2022-10-16T11:24:37;5.23;;;4.60;;
2211;SDS011;48849;48.758;9.158;2022-10-16T11:27:12;6.40;;;4.77;;
2211;SDS011;48849;48.758;9.158;2022-10-16T11:29:44;8.20;;;5.60;;
2211;SDS011;48849;48.758;9.158;2022-10-16T11:32:19;7.77;;;4.37;;
2211;SDS011;48849;48.758;9.158;2022-10-16T11:34:55;5.03;;;4.30;;
2211;SDS011;48849;48.758;9.158;2022-10-16T11:37:30;4.50;;;4.10;;
2211;SDS011;48849;48.758;9.158;2022-10-16T11:40:10;5.40;;;4.10;;
2211;SDS011;48849;48.758;9.158;2022-10-16T11:42:48;5.00;;;4.50;;
2211;SDS011;48849;48.758;9.158;2022-10-16T11:45:23;5.77;;;4.20;;
2211;SDS011;48849;48.758;9.158;2022-10-16T11:47:56;6.10;;;4.67;;
2211;SDS011;48849;48.758;9.158;2022-10-16T11:50:28;9.47;;;8.50;;
2211;SDS011;48849;48.758;9.158;2022-10-16T11:53:01;11.73;;;7.73;;
2211;SDS011;48849;48.758;9.158;2022-10-16T11:55:37;16.80;;;11.07;;
2211;SDS011;48849;48.758;9.158;2022-10-16T11:58:07;13.03;;;11.63;;
2211;SDS011;48849;48.758;9.158;2022-10-16T12:00:43;13.50;;;10.77;;
2211;SDS011;48849;48.758;9.158;2022-10-16T12:03:17;9.80;;;8.80;;
2211;SDS011;48849;48.758;9.158;2022-10-16T12:05:55;14.20;;;8.73;;
2211;SDS011;48849;48.758;9.158;2022-10-16T12:08:33;15.33;;;13.70;;
2211;SDS011;48849;48.758;9.158;2022-10-16T12:11:19;13.73;;;12.30;;
2211;SDS011;48849;48.758;9.158;2022-10-16T12:14:06;13.87;;;10.80;;
2211;SDS011;48849;48.758;9.158;2022-10-16T12:16:54;13.70;;;9.63;;
2211;SDS011;48849;48.758;9.158;2022-10-16T12:19:27;10.23;;;9.23;;
2211;SDS011;48849;48.758;9.158;2022-10-16T12:22:00;15.60;;;7.33;;
2211;SDS011;48849;48.758;9.158;2022-10-16T12:24:33;9.73;;;7.13;;
2211;SDS011;48849;48.758;9.158;2022-10-16T12:27:20;10.63;;;7.00;;
2211;SDS011;48849;48.758;9.158;2022-10-16T12:29:53;8.97;;;6.83;;
2211;SDS011;48849;48.758;9.158;2022-10-16T12:32:23;9.43;;;7.70;;
2211;SDS011;48849;48.758;9.158;2022-10-16T12:34:57;9.33;;;7.30;;
2211;SDS011;48849;48.758;9.158;2022-10-16T12:37:28;7.63;;;6.50;;
2211;SDS011;48849;48.758;9.158;2022-10-16T12:39:58;8.77;;;6.03;;
2211;SDS011;48849;48.758;9.158;2022-10-16T12:42:41;7.30;;;6.00;;
2211;SDS011;48849;48.758;9.158;2022-10-16T12:45:23;7.40;;;5.90;;
2211;SDS011;48849;48.758;9.158;2022-10-16T12:47:53;7.43;;;6.00;;
2211;SDS011;48849;48.758;9.158;2022-10-16T12:50:29;5.50;;;4.80;;
2211;SDS011;48849;48.758;9.158;2022-10-16T12:53:00;9.80;;;5.67;;
2211;SDS011;48849;48.758;9.158;2022-10-16T12:55:42;5.17;;;4.67;;
2211;SDS011;48849;48.758;9.158;2022-10-16T13:01:24;4.60;;;4.03;;
2211;SDS011;48849;48.758;9.158;2022-10-16T13:04:10;5.30;;;3.30;;
2211;SDS011;48849;48.758;9.158;2022-10-16T13:06:51;6.00;;;3.57;;
2211;SDS011;48849;48.758;9.158;2022-10-16T13:09:35;7.03;;;4.20;;
2211;SDS011;48849;48.758;9.158;2022-10-16T13:12:21;8.47;;;3.90;;
2211;SDS011;48849;48.758;9.158;2022-10-16T13:15:06;4.40;;;3.73;;
2211;SDS011;48849;48.758;9.158;2022-10-16T13:17:50;5.60;;;3.33;;
2211;SDS011;48849;48.758;9.158;2022-10-16T13:20:28;6.20;;;3.27;;
2211;SDS011;48849;48.758;9.158;2022-10-16T13:23:05;3.93;;;3.50;;
2211;SDS011;48849;48.758;9.158;2022-10-16T13:25:49;5.67;;;3.30;;
2211;SDS011;48849;48.758;9.158;2022-10-16T13:28:29;4.90;;;3.33;;
2211;SDS011;48849;48.758;9.158;2022-10-16T13:31:03;6.90;;;3.40;;
2211;SDS011;48849;48.758;9.158;2022-10-16T13:33:41;4.57;;;2.90;;
2211;SDS011;48849;48.758;9.158;2022-10-16T13:36:22;5.83;;;3.67;;
2211;SDS011;48849;48.758;9.158;2022-10-16T13:39:07;6.90;;;3.30;;
2211;SDS011;48849;48.758;9.158;2022-10-16T13:41:39;7.43;;;3.90;;
2211;SDS011;48849;48.758;9.158;2022-10-16T13:44:11;5.30;;;3.67;;
2211;SDS011;48849;48.758;9.158;2022-10-16T13:46:43;4.70;;;3.87;;
2211;SDS011;48849;48.758;9.158;2022-10-16T13:49:12;7.53;;;4.67;;
2211;SDS011;48849;48.758;9.158;2022-10-16T13:51:41;10.77;;;4.27;;
2211;SDS011;48849;48.758;9.158;2022-10-16T13:54:24;5.60;;;4.13;;
2211;SDS011;48849;48.758;9.158;2022-10-16T13:56:55;4.40;;;4.00;;
2211;SDS011;48849;48.758;9.158;2022-10-16T13:59:22;6.10;;;4.37;;
2211;SDS011;48849;48.758;9.158;2022-10-16T14:01:52;6.60;;;4.67;;
2211;SDS011;48849;48.758;9.158;2022-10-16T14:04:21;7.63;;;4.47;;
2211;SDS011;48849;48.758;9.158;2022-10-16T14:06:49;7.60;;;4.60;;
2211;SDS011;48849;48.758;9.158;2022-10-16T14:09:20;5.60;;;4.70;;
2211;SDS011;48849;48.758;9.158;2022-10-16T14:11:49;5.43;;;4.70;;
2211;SDS011;48849;48.758;9.158;2022-10-16T14:14:18;5.53;;;4.17;;
2211;SDS011;48849;48.758;9.158;2022-10-16T14:16:46;5.40;;;4.90;;
2211;SDS011;48849;48.758;9.158;2022-10-16T14:19:18;9.37;;;4.30;;
2211;SDS011;48849;48.758;9.158;2022-10-16T14:21:48;7.57;;;4.57;;
2211;SDS011;48849;48.758;9.158;2022-10-16T14:24:22;6.30;;;4.27;;
2211;SDS011;48849;48.758;9.158;2022-10-16T14:26:52;6.03;;;3.90;;
2211;SDS011;48849;48.758;9.158;2022-10-16T14:29:20;6.90;;;3.83;;
2211;SDS011;48849;48.758;9.158;2022-10-16T14:31:53;7.23;;;4.40;;
2211;SDS011;48849;48.758;9.158;2022-10-16T14:34:24;3.53;;;3.23;;
2211;SDS011;48849;48.758;9.158;2022-10-16T14:36:52;3.63;;;3.33;;
2211;SDS011;48849;48.758;9.158;2022-10-16T14:39:20;7.83;;;3.63;;
2211;SDS011;48849;48.758;9.158;2022-10-16T14:41:49;6.27;;;3.57;;
2211;SDS011;48849;48.758;9.158;2022-10-16T14:44:17;5.73;;;3.50;;
2211;SDS011;48849;48.758;9.158;2022-10-16T14:46:47;6.30;;;3.90;;
2211;SDS011;48849;48.758;9.158;2022-10-16T14:49:15;10.00;;;5.03;;
2211;SDS011;48849;48.758;9.158;2022-10-16T14:51:46;6.53;;;5.50;;
2211;SDS011;48849;48.758;9.158;2022-10-16T14:54:13;7.80;;;5.27;;
2211;SDS011;48849;48.758;9.158;2022-10-16T14:56:43;13.93;;;5.47;;
2211;SDS011;48849;48.758;9.158;2022-10-16T14:59:14;5.77;;;4.53;;
2211;SDS011;48849;48.758;9.158;2022-10-16T15:01:44;6.50;;;4.73;;
2211;SDS011;48849;48.758;9.158;2022-10-16T15:04:11;6.70;;;4.23;;
2211;SDS011;48849;48.758;9.158;2022-10-16T15:06:38;15.33;;;5.20;;
2211;SDS011;48849;48.758;9.158;2022-10-16T15:09:07;8.83;;;4.70;;
2211;SDS011;48849;48.758;9.158;2022-10-16T15:11:34;13.23;;;4.40;;
2211;SDS011;48849;48.758;9.158;2022-10-16T15:14:01;5.70;;;4.63;;
2211;SDS011;48849;48.758;9.158;2022-10-16T15:16:28;15.07;;;5.40;;
2211;SDS011;48849;48.758;9.158;2022-10-16T15:18:55;7.30;;;4.00;;
2211;SDS011;48849;48.758;9.158;2022-10-16T15:21:23;5.67;;;3.90;;
2211;SDS011;48849;48.758;9.158;2022-10-16T15:23:52;4.83;;;4.20;;
2211;SDS011;48849;48.758;9.158;2022-10-16T15:26:20;5.00;;;4.00;;
2211;SDS011;48849;48.758;9.158;2022-10-16T15:28:47;5.30;;;3.70;;
2211;SDS011;48849;48.758;9.158;2022-10-16T15:31:13;12.60;;;4.50;;
2211;SDS011;48849;48.758;9.158;2022-10-16T15:33:40;7.93;;;4.27;;
2211;SDS011;48849;48.758;9.158;2022-10-16T15:36:07;4.80;;;3.83;;
2211;SDS011;48849;48.758;9.158;2022-10-16T15:38:34;7.57;;;4.27;;
2211;SDS011;48849;48.758;9.158;2022-10-16T15:41:01;7.40;;;4.97;;
2211;SDS011;48849;48.758;9.158;2022-10-16T15:43:29;6.63;;;4.20;;